Time;durP1;ratioP1;P1;durP2;ratioP2;P2;SDS_P1;SDS_P2;PMS_P1;PMS_P2;Temp;Humidity;BMP_temperature;BMP_pressure;BME280_temperature;BME280_humidity;BME280_pressure;Samples;Min_cycle;Max_cycle;Signal;HPM_P1;HPM_P2
2023/07/11 00:00:58;;;;;;;;;;;11.30;70.20;;;;;;6307830;22;19907;-69
2023/07/11 00:03:25;;;;;;;;;;;11.30;70.20;;;;;;6307735;22;19903;-70
2023/07/11 00:06:02;;;;;;;;;;;11.40;70.00;;;;;;6280669;22;20290;-69
2023/07/11 00:08:28;;;;;;;;;;;11.40;69.90;;;;;;6307430;22;20000;-69
2023/07/11 00:10:55;;;;;;;;;;;11.40;69.60;;;;;;6307683;22;19982;-69
2023/07/11 00:13:22;;;;;;;;;;;11.60;69.30;;;;;;6307673;22;19910;-69
2023/07/11 00:15:58;;;;;;;;;;;11.60;69.10;;;;;;6307822;22;19956;-69
2023/07/11 00:18:25;;;;;;;;;;;11.60;68.90;;;;;;6280081;22;19950;-68
2023/07/11 00:20:52;;;;;;;;;;;11.70;68.60;;;;;;6307889;22;19903;-69
2023/07/11 00:23:18;;;;;;;;;;;11.70;68.30;;;;;;6307564;22;19919;-69
2023/07/11 00:25:45;;;;;;;;;;;11.80;67.50;;;;;;6307373;22;19910;-69
2023/07/11 00:28:11;;;;;;;;;;;11.80;67.30;;;;;;6280374;22;19903;-68
2023/07/11 00:30:41;;;;;;;;;;;11.80;67.00;;;;;;6279945;22;19947;-69
2023/07/11 00:33:08;;;;;;;;;;;11.90;66.30;;;;;;6280831;22;19978;-69
2023/07/11 00:35:36;;;;;;;;;;;11.90;66.20;;;;;;6307719;22;19903;-69
2023/07/11 00:38:06;;;;;;;;;;;12.00;66.00;;;;;;6280071;22;20050;-68
2023/07/11 00:40:33;;;;;;;;;;;12.10;65.70;;;;;;6307481;22;19910;-68
2023/07/11 00:43:00;;;;;;;;;;;12.10;65.30;;;;;;6280462;22;19982;-69
2023/07/11 00:45:45;;;;;;;;;;;12.20;65.10;;;;;;6307261;22;20234;-68
2023/07/11 00:48:12;;;;;;;;;;;12.20;64.90;;;;;;6307544;22;19907;-68
2023/07/11 00:50:39;;;;;;;;;;;12.30;64.80;;;;;;6280419;22;19939;-68
2023/07/11 00:53:06;;;;;;;;;;;12.30;64.20;;;;;;6307103;22;19907;-68
2023/07/11 00:55:33;;;;;;;;;;;12.30;64.00;;;;;;6280216;22;19956;-68
2023/07/11 00:57:59;;;;;;;;;;;12.40;63.90;;;;;;6274847;22;19961;-68
2023/07/11 01:00:26;;;;;;;;;;;12.40;63.60;;;;;;6274964;22;19915;-69
2023/07/11 01:02:53;;;;;;;;;;;12.50;63.50;;;;;;6249303;22;20376;-68
2023/07/11 01:05:19;;;;;;;;;;;12.50;63.20;;;;;;6276263;22;19903;-68
2023/07/11 01:07:46;;;;;;;;;;;12.60;62.90;;;;;;6276367;22;19992;-69
2023/07/11 01:10:12;;;;;;;;;;;12.70;62.80;;;;;;6276283;22;20314;-69
2023/07/11 01:12:48;;;;;;;;;;;12.70;62.60;;;;;;6276543;22;19910;-68
2023/07/11 01:15:15;;;;;;;;;;;12.70;62.30;;;;;;6274440;22;19907;-69
2023/07/11 01:17:42;;;;;;;;;;;12.80;61.90;;;;;;6274950;22;19908;-69
2023/07/11 01:20:09;;;;;;;;;;;12.90;61.80;;;;;;6276102;22;19930;-69
2023/07/11 01:22:37;;;;;;;;;;;12.90;61.60;;;;;;6274984;22;19904;-68
2023/07/11 01:25:08;;;;;;;;;;;12.90;61.30;;;;;;6276157;22;19903;-69
2023/07/11 01:27:35;;;;;;;;;;;12.90;61.30;;;;;;6276277;22;19904;-69
2023/07/11 01:30:03;;;;;;;;;;;13.00;61.40;;;;;;6276054;22;19986;-68
2023/07/11 01:32:30;;;;;;;;;;;13.00;61.30;;;;;;6276374;22;20238;-69
2023/07/11 01:34:56;;;;;;;;;;;13.10;60.80;;;;;;6276243;22;19982;-68
2023/07/11 01:37:23;;;;;;;;;;;13.10;60.60;;;;;;6276262;22;19907;-69
2023/07/11 01:39:50;;;;;;;;;;;13.20;60.60;;;;;;6276070;22;19991;-68
2023/07/11 01:42:17;;;;;;;;;;;13.20;60.40;;;;;;6276238;22;19904;-68
2023/07/11 01:44:43;;;;;;;;;;;13.20;60.00;;;;;;6276153;22;20195;-68
2023/07/11 01:47:10;;;;;;;;;;;13.30;59.80;;;;;;6274541;22;19991;-68
2023/07/11 01:49:37;;;;;;;;;;;13.30;59.80;;;;;;6274252;22;19910;-68
2023/07/11 01:52:04;;;;;;;;;;;13.30;59.70;;;;;;6276261;22;19903;-68
2023/07/11 01:54:31;;;;;;;;;;;13.40;59.40;;;;;;6276338;22;19904;-68
2023/07/11 01:56:59;;;;;;;;;;;13.40;59.30;;;;;;6282094;22;19929;-68
2023/07/11 01:59:27;;;;;;;;;;;13.50;59.20;;;;;;6306473;22;19943;-68
2023/07/11 02:01:53;;;;;;;;;;;13.50;59.20;;;;;;6306676;22;19903;-68
2023/07/11 02:04:23;;;;;;;;;;;13.60;59.20;;;;;;6306717;22;19956;-69
2023/07/11 02:06:50;;;;;;;;;;;13.60;58.80;;;;;;6279502;22;19982;-68
2023/07/11 02:09:19;;;;;;;;;;;13.60;58.80;;;;;;6306820;22;19903;-68
2023/07/11 02:11:46;;;;;;;;;;;13.70;58.90;;;;;;6306885;22;19910;-68
2023/07/11 02:14:13;;;;;;;;;;;13.70;59.10;;;;;;6279318;22;19913;-68
2023/07/11 02:16:44;;;;;;;;;;;13.70;58.90;;;;;;6279761;22;19907;-68
2023/07/11 02:19:13;;;;;;;;;;;13.70;58.90;;;;;;6306542;22;19918;-68
2023/07/11 02:21:40;;;;;;;;;;;13.70;58.90;;;;;;6306784;22;19910;-68
2023/07/11 02:24:08;;;;;;;;;;;13.80;59.10;;;;;;6279751;22;19946;-68
2023/07/11 02:26:34;;;;;;;;;;;13.80;59.20;;;;;;6306858;22;19941;-69
2023/07/11 02:29:01;;;;;;;;;;;13.90;58.90;;;;;;6279754;22;19910;-69
2023/07/11 02:31:28;;;;;;;;;;;13.90;59.00;;;;;;6306688;22;19909;-68
2023/07/11 02:33:55;;;;;;;;;;;14.00;58.80;;;;;;6306779;22;19903;-68
2023/07/11 02:36:21;;;;;;;;;;;14.00;58.80;;;;;;6306715;22;19903;-68
2023/07/11 02:38:48;;;;;;;;;;;14.00;58.60;;;;;;6306588;22;19907;-69
2023/07/11 02:41:15;;;;;;;;;;;14.00;58.60;;;;;;6307055;22;19942;-68
2023/07/11 02:43:42;;;;;;;;;;;14.20;58.50;;;;;;6308709;22;19911;-69
2023/07/11 02:46:09;;;;;;;;;;;14.20;58.30;;;;;;6308773;22;19903;-69
2023/07/11 02:48:35;;;;;;;;;;;14.20;58.00;;;;;;6308869;22;19903;-68
2023/07/11 02:51:02;;;;;;;;;;;14.20;57.60;;;;;;6281288;22;19907;-68
2023/07/11 02:53:29;;;;;;;;;;;14.20;57.10;;;;;;6308595;22;19903;-68
2023/07/11 02:55:56;;;;;;;;;;;14.30;57.30;;;;;;6308584;22;20242;-68
2023/07/11 02:58:23;;;;;;;;;;;14.30;57.40;;;;;;6280818;22;19914;-69
2023/07/11 03:00:50;;;;;;;;;;;14.30;57.00;;;;;;6308384;22;20324;-69
2023/07/11 03:03:17;;;;;;;;;;;14.40;56.60;;;;;;6281371;22;19973;-68
2023/07/11 03:05:45;;;;;;;;;;;14.30;56.30;;;;;;6308481;22;19910;-69
2023/07/11 03:08:11;;;;;;;;;;;14.40;56.30;;;;;;6308325;22;19907;-69
2023/07/11 03:10:38;;;;;;;;;;;14.40;56.50;;;;;;6281111;22;19907;-69
2023/07/11 03:13:05;;;;;;;;;;;14.50;56.20;;;;;;6281361;22;19910;-68
2023/07/11 03:15:35;;;;;;;;;;;14.50;56.20;;;;;;6281172;22;19909;-69
2023/07/11 03:18:01;;;;;;;;;;;14.50;55.80;;;;;;6308156;22;19903;-68
2023/07/11 03:20:28;;;;;;;;;;;14.50;55.50;;;;;;6281127;22;19982;-68
2023/07/11 03:22:55;;;;;;;;;;;14.60;55.70;;;;;;6308376;22;19903;-68
2023/07/11 03:25:22;;;;;;;;;;;14.70;55.70;;;;;;6308129;22;19903;-68
2023/07/11 03:27:48;;;;;;;;;;;14.70;55.60;;;;;;6308223;22;19911;-68
2023/07/11 03:30:15;;;;;;;;;;;14.70;55.40;;;;;;6308016;22;19903;-68
2023/07/11 03:32:42;;;;;;;;;;;14.80;55.60;;;;;;6308174;22;19941;-68
2023/07/11 03:35:09;;;;;;;;;;;14.80;55.90;;;;;;6308103;22;20314;-68
2023/07/11 03:37:35;;;;;;;;;;;14.90;55.50;;;;;;6308838;22;19907;-68
2023/07/11 03:40:03;;;;;;;;;;;14.90;55.30;;;;;;6307967;22;19922;-70
2023/07/11 03:42:30;;;;;;;;;;;14.90;55.10;;;;;;6280729;22;20337;-68
2023/07/11 03:44:57;;;;;;;;;;;14.90;54.70;;;;;;6255095;22;19982;-68
2023/07/11 03:47:24;;;;;;;;;;;14.90;54.20;;;;;;6255170;22;19903;-68
2023/07/11 03:49:50;;;;;;;;;;;14.90;53.90;;;;;;6307991;22;20318;-68
2023/07/11 03:52:17;;;;;;;;;;;14.90;54.00;;;;;;6280638;22;19903;-68
2023/07/11 03:54:44;;;;;;;;;;;15.00;53.90;;;;;;6308501;22;20214;-68
2023/07/11 03:57:11;;;;;;;;;;;15.00;53.60;;;;;;6254766;22;19922;-68
2023/07/11 03:59:37;;;;;;;;;;;15.00;52.90;;;;;;6308032;22;19911;-70
2023/07/11 04:02:04;;;;;;;;;;;15.00;52.30;;;;;;6307907;22;19940;-68
2023/07/11 04:04:31;;;;;;;;;;;15.10;52.50;;;;;;6279996;22;19914;-68
2023/07/11 04:06:58;;;;;;;;;;;15.20;52.30;;;;;;6280511;22;19907;-68
2023/07/11 04:09:24;;;;;;;;;;;15.10;52.10;;;;;;6280415;22;19909;-68
2023/07/11 04:11:51;;;;;;;;;;;15.10;51.70;;;;;;6307954;22;20270;-68
2023/07/11 04:14:18;;;;;;;;;;;15.20;51.80;;;;;;6308098;22;19910;-68
2023/07/11 04:16:44;;;;;;;;;;;15.20;51.80;;;;;;6307670;22;20320;-68
2023/07/11 04:19:11;;;;;;;;;;;15.20;51.90;;;;;;6307815;22;19951;-68
2023/07/11 04:21:38;;;;;;;;;;;15.20;51.70;;;;;;6307582;22;19903;-68
2023/07/11 04:24:05;;;;;;;;;;;15.30;51.40;;;;;;6307826;22;19903;-68
2023/07/11 04:26:31;;;;;;;;;;;15.30;51.40;;;;;;6254812;22;20273;-68
2023/07/11 04:28:58;;;;;;;;;;;15.30;51.00;;;;;;6307521;22;19906;-68
2023/07/11 04:31:26;;;;;;;;;;;15.30;51.40;;;;;;6307725;22;19907;-68
2023/07/11 04:33:53;;;;;;;;;;;15.30;51.80;;;;;;6307146;22;19914;-68
2023/07/11 04:36:19;;;;;;;;;;;15.40;51.40;;;;;;6307500;22;20059;-68
2023/07/11 04:38:46;;;;;;;;;;;15.40;51.30;;;;;;6279975;22;19911;-68
2023/07/11 04:41:13;;;;;;;;;;;15.40;50.90;;;;;;6307358;22;19903;-68
2023/07/11 04:43:40;;;;;;;;;;;15.40;50.90;;;;;;6307410;22;19903;-68
2023/07/11 04:46:06;;;;;;;;;;;15.50;50.90;;;;;;6280342;22;20249;-68
2023/07/11 04:48:33;;;;;;;;;;;15.40;50.80;;;;;;6307441;22;19903;-69
2023/07/11 04:51:02;;;;;;;;;;;15.40;50.50;;;;;;6280118;22;20007;-68
2023/07/11 04:53:29;;;;;;;;;;;15.40;50.30;;;;;;6307186;22;19938;-68
2023/07/11 04:55:57;;;;;;;;;;;15.50;50.50;;;;;;6307535;22;19903;-68
2023/07/11 04:58:24;;;;;;;;;;;15.50;50.60;;;;;;6307237;22;19915;-68
2023/07/11 05:00:51;;;;;;;;;;;15.50;50.70;;;;;;6307397;22;20250;-68
2023/07/11 05:03:18;;;;;;;;;;;15.50;50.40;;;;;;6307129;22;19903;-68
2023/07/11 05:05:44;;;;;;;;;;;15.50;50.20;;;;;;6307288;22;20378;-68
2023/07/11 05:08:11;;;;;;;;;;;15.50;50.00;;;;;;6279943;22;19909;-68
2023/07/11 05:10:38;;;;;;;;;;;15.50;50.10;;;;;;6307346;22;20215;-70
2023/07/11 05:13:04;;;;;;;;;;;15.50;50.20;;;;;;6307894;22;19906;-70
2023/07/11 05:15:31;;;;;;;;;;;15.50;50.10;;;;;;6306942;22;19926;-70
2023/07/11 05:17:58;;;;;;;;;;;15.60;50.40;;;;;;6306969;22;19939;-70
2023/07/11 05:20:24;;;;;;;;;;;15.60;50.40;;;;;;6307056;22;19934;-70
2023/07/11 05:22:51;;;;;;;;;;;15.70;50.30;;;;;;6306764;22;20298;-70
2023/07/11 05:25:18;;;;;;;;;;;15.70;50.20;;;;;;6303794;22;19995;-67
2023/07/11 05:27:45;;;;;;;;;;;15.70;50.20;;;;;;6303584;22;20480;-68
2023/07/11 05:30:12;;;;;;;;;;;15.60;50.10;;;;;;6303325;22;20393;-68
2023/07/11 05:32:39;;;;;;;;;;;15.70;50.00;;;;;;6302814;22;20345;-68
2023/07/11 05:35:06;;;;;;;;;;;15.70;50.40;;;;;;6302701;22;19903;-68
2023/07/11 05:37:32;;;;;;;;;;;15.70;50.70;;;;;;6302827;22;20322;-69
2023/07/11 05:39:59;;;;;;;;;;;15.70;50.30;;;;;;6303093;22;19960;-69
2023/07/11 05:42:26;;;;;;;;;;;15.70;50.10;;;;;;6303384;22;19914;-68
2023/07/11 05:44:54;;;;;;;;;;;15.70;50.00;;;;;;6301063;22;19914;-68
2023/07/11 05:47:21;;;;;;;;;;;15.70;49.90;;;;;;6303808;22;19975;-70
2023/07/11 05:49:48;;;;;;;;;;;15.70;49.70;;;;;;6303068;22;19986;-69
2023/07/11 05:52:14;;;;;;;;;;;15.70;49.50;;;;;;6303719;22;19982;-69
2023/07/11 05:54:41;;;;;;;;;;;15.70;49.50;;;;;;6303575;22;19922;-69
2023/07/11 05:57:08;;;;;;;;;;;15.70;49.80;;;;;;6303432;22;19986;-69
2023/07/11 05:59:34;;;;;;;;;;;15.70;49.90;;;;;;6303385;22;19968;-69
2023/07/11 06:02:01;;;;;;;;;;;15.70;49.90;;;;;;6302702;22;19911;-69
2023/07/11 06:04:28;;;;;;;;;;;15.70;49.90;;;;;;6303099;22;19937;-69
2023/07/11 06:06:54;;;;;;;;;;;15.70;50.00;;;;;;6303475;22;19903;-70
2023/07/11 06:09:21;;;;;;;;;;;15.70;49.90;;;;;;6303142;22;19903;-70
2023/07/11 06:11:48;;;;;;;;;;;15.70;50.00;;;;;;6303001;22;19906;-69
2023/07/11 06:14:16;;;;;;;;;;;15.70;50.10;;;;;;6302664;22;19903;-69
2023/07/11 06:16:43;;;;;;;;;;;15.70;50.20;;;;;;6303714;22;19979;-70
2023/07/11 06:19:10;;;;;;;;;;;15.70;50.50;;;;;;6305258;22;20005;-71
2023/07/11 06:21:37;;;;;;;;;;;15.70;50.50;;;;;;6305454;22;20242;-70
2023/07/11 06:24:04;;;;;;;;;;;15.70;50.80;;;;;;6305111;22;20278;-70
2023/07/11 06:26:30;;;;;;;;;;;15.70;50.90;;;;;;6305308;22;20380;-69
2023/07/11 06:28:57;;;;;;;;;;;15.70;50.80;;;;;;6304947;22;19907;-69
2023/07/11 06:31:24;;;;;;;;;;;15.60;50.70;;;;;;6302690;22;20207;-71
2023/07/11 06:33:50;;;;;;;;;;;15.70;50.90;;;;;;6305008;22;19930;-71
2023/07/11 06:36:17;;;;;;;;;;;15.60;51.10;;;;;;6277202;22;20242;-71
2023/07/11 06:38:44;;;;;;;;;;;15.60;51.20;;;;;;6304921;22;19947;-71
2023/07/11 06:41:11;;;;;;;;;;;15.50;51.30;;;;;;6304971;22;20384;-70
2023/07/11 06:43:37;;;;;;;;;;;15.50;51.50;;;;;;6301916;22;19903;-69
2023/07/11 06:46:04;;;;;;;;;;;15.50;51.80;;;;;;6305064;22;19986;-69
2023/07/11 06:48:31;;;;;;;;;;;15.40;52.00;;;;;;6304563;22;19907;-70
2023/07/11 06:51:01;;;;;;;;;;;15.50;52.30;;;;;;6305002;22;20506;-69
2023/07/11 06:53:30;;;;;;;;;;;15.40;52.40;;;;;;6277171;22;19965;-70
2023/07/11 06:55:56;;;;;;;;;;;15.40;52.50;;;;;;6302771;22;20306;-71
2023/07/11 06:58:23;;;;;;;;;;;15.40;52.80;;;;;;6304136;22;19919;-70
2023/07/11 07:00:56;;;;;;;;;;;15.30;52.90;;;;;;6304782;22;20355;-71
2023/07/11 07:03:23;;;;;;;;;;;15.30;53.10;;;;;;6303900;22;19907;-69
2023/07/11 07:05:58;;;;;;;;;;;15.30;53.40;;;;;;6276711;22;20226;-70
2023/07/11 07:08:28;;;;;;;;;;;15.30;53.70;;;;;;6303773;22;20221;-69
2023/07/11 07:10:54;;;;;;;;;;;15.20;53.90;;;;;;6304668;22;19902;-69
2023/07/11 07:13:22;;;;;;;;;;;15.20;54.20;;;;;;6277842;22;19910;-69
2023/07/11 07:15:52;;;;;;;;;;;15.20;54.20;;;;;;6277843;22;19989;-69
2023/07/11 07:18:18;;;;;;;;;;;15.20;54.30;;;;;;6305171;22;19914;-69
2023/07/11 07:20:45;;;;;;;;;;;15.10;54.50;;;;;;6305051;22;19949;-69
2023/07/11 07:23:12;;;;;;;;;;;15.10;54.80;;;;;;6304988;22;20243;-70
2023/07/11 07:25:39;;;;;;;;;;;15.00;54.90;;;;;;6304230;22;19906;-70
2023/07/11 07:28:07;;;;;;;;;;;15.00;55.10;;;;;;6304348;22;19906;-71
2023/07/11 07:30:34;;;;;;;;;;;15.00;55.30;;;;;;6304341;22;19907;-70
2023/07/11 07:33:01;;;;;;;;;;;15.00;55.50;;;;;;6304819;22;19910;-70
2023/07/11 07:35:28;;;;;;;;;;;15.00;55.60;;;;;;6304911;22;19973;-70
2023/07/11 07:37:55;;;;;;;;;;;14.90;55.80;;;;;;6304105;22;19967;-71
2023/07/11 07:40:22;;;;;;;;;;;14.80;55.80;;;;;;6303330;22;19926;-69
2023/07/11 07:42:48;;;;;;;;;;;14.80;55.90;;;;;;6306088;22;19907;-69
2023/07/11 07:45:15;;;;;;;;;;;14.80;56.10;;;;;;6306804;22;19930;-69
2023/07/11 07:47:42;;;;;;;;;;;14.80;56.40;;;;;;6279617;22;19903;-69
2023/07/11 07:50:09;;;;;;;;;;;14.70;56.70;;;;;;6307554;22;19907;-69
2023/07/11 07:52:36;;;;;;;;;;;14.70;56.70;;;;;;6254445;22;19903;-69
2023/07/11 07:55:02;;;;;;;;;;;14.70;56.70;;;;;;6255368;22;20296;-69
2023/07/11 07:57:29;;;;;;;;;;;14.70;56.90;;;;;;6307744;22;19922;-69
2023/07/11 07:59:56;;;;;;;;;;;14.70;57.10;;;;;;6307349;22;19912;-69
2023/07/11 08:02:23;;;;;;;;;;;14.60;57.10;;;;;;6280114;22;19907;-68
2023/07/11 08:04:49;;;;;;;;;;;14.70;57.10;;;;;;6307100;22;19903;-68
2023/07/11 08:07:16;;;;;;;;;;;14.60;57.00;;;;;;6308046;22;19918;-68
2023/07/11 08:09:43;;;;;;;;;;;14.60;57.10;;;;;;6280546;22;19987;-68
2023/07/11 08:12:11;;;;;;;;;;;14.60;57.20;;;;;;6279620;22;19903;-69
2023/07/11 08:14:38;;;;;;;;;;;14.50;57.40;;;;;;6280186;22;19903;-69
2023/07/11 08:17:05;;;;;;;;;;;14.50;57.40;;;;;;6280240;22;19909;-69
2023/07/11 08:19:32;;;;;;;;;;;14.50;57.50;;;;;;6307537;22;20223;-69
2023/07/11 08:21:58;;;;;;;;;;;14.40;57.50;;;;;;6280404;22;19907;-69
2023/07/11 08:24:26;;;;;;;;;;;14.40;57.40;;;;;;6306522;22;19978;-69
2023/07/11 08:26:53;;;;;;;;;;;14.40;57.20;;;;;;6279699;22;19910;-69
2023/07/11 08:29:20;;;;;;;;;;;14.50;57.00;;;;;;6307290;22;19910;-69
2023/07/11 08:31:46;;;;;;;;;;;14.50;56.70;;;;;;6306726;22;19910;-69
2023/07/11 08:34:13;;;;;;;;;;;14.50;56.90;;;;;;6278990;22;20310;-70
2023/07/11 08:36:40;;;;;;;;;;;14.50;57.10;;;;;;6306825;22;19914;-69
2023/07/11 08:39:07;;;;;;;;;;;14.40;57.50;;;;;;6305618;22;19975;-69
2023/07/11 08:41:44;;;;;;;;;;;14.30;57.90;;;;;;6305202;22;19903;-68
2023/07/11 08:44:34;;;;;;;;;;;14.30;58.50;;;;;;6304898;22;20337;-69
2023/07/11 08:47:06;;;;;;;;;;;14.20;58.90;;;;;;6235489;22;19982;-68
2023/07/11 08:49:35;;;;;;;;;;;14.20;59.20;;;;;;6306967;22;20327;-69
2023/07/11 08:52:02;;;;;;;;;;;14.20;59.40;;;;;;6306883;22;19948;-69
2023/07/11 08:54:29;;;;;;;;;;;14.10;59.80;;;;;;6278775;22;19903;-68
2023/07/11 08:56:59;;;;;;;;;;;14.10;60.00;;;;;;6306753;22;19911;-68
2023/07/11 08:59:46;;;;;;;;;;;14.10;60.40;;;;;;6302513;22;19911;-72
2023/07/11 09:02:21;;;;;;;;;;;14.00;60.80;;;;;;6273506;22;19938;-70
2023/07/11 09:04:50;;;;;;;;;;;14.00;60.90;;;;;;6276054;22;19918;-69
2023/07/11 09:07:25;;;;;;;;;;;14.00;60.60;;;;;;6303015;22;19914;-69
2023/07/11 09:09:52;;;;;;;;;;;14.00;60.50;;;;;;6303335;22;20382;-69
2023/07/11 09:12:47;;;;;;;;;;;14.00;60.50;;;;;;6302587;22;20021;-69
2023/07/11 09:15:14;;;;;;;;;;;13.90;61.60;;;;;;6270000;22;19903;-69
2023/07/11 09:17:48;;;;;;;;;;;13.90;62.00;;;;;;6303958;22;19915;-71
2023/07/11 09:20:19;;;;;;;;;;;13.80;62.10;;;;;;6276197;22;19923;-69
2023/07/11 09:22:49;;;;;;;;;;;13.80;62.20;;;;;;6275368;22;20463;-70
2023/07/11 09:25:19;;;;;;;;;;;13.70;62.30;;;;;;6302596;22;19938;-70
2023/07/11 09:27:51;;;;;;;;;;;13.70;62.40;;;;;;6275823;22;19910;-69
2023/07/11 09:30:18;;;;;;;;;;;13.70;62.40;;;;;;6276135;22;19919;-70
2023/07/11 10:56:07;;;;;;;;;;;13.20;64.80;;;;;;6271412;22;20016;-68
2023/07/11 10:58:34;;;;;;;;;;;13.30;64.80;;;;;;6271791;22;19911;-69
2023/07/11 11:01:16;;;;;;;;;;;13.20;64.80;;;;;;6269100;22;19911;-67
2023/07/11 11:03:43;;;;;;;;;;;13.20;64.80;;;;;;6272744;22;20280;-70
2023/07/11 11:06:16;;;;;;;;;;;13.30;65.00;;;;;;6244329;22;19907;-69
2023/07/11 11:08:55;;;;;;;;;;;13.20;65.30;;;;;;6272940;22;19938;-71
2023/07/11 11:11:41;;;;;;;;;;;13.20;65.50;;;;;;6272727;22;19903;-72
2023/07/11 11:14:21;;;;;;;;;;;13.20;65.70;;;;;;6272027;22;19911;-70
2023/07/11 11:16:48;;;;;;;;;;;13.10;66.00;;;;;;6244590;22;19914;-70
2023/07/11 11:19:18;;;;;;;;;;;13.10;66.00;;;;;;6272746;22;19994;-70
2023/07/11 11:21:53;;;;;;;;;;;13.00;65.90;;;;;;6268470;22;19907;-69
2023/07/11 11:24:29;;;;;;;;;;;13.00;66.30;;;;;;6271590;22;20315;-68
2023/07/11 11:27:15;;;;;;;;;;;12.90;66.50;;;;;;6245588;22;20355;-69
2023/07/11 11:29:46;;;;;;;;;;;12.90;66.80;;;;;;6272198;22;20370;-69
2023/07/11 11:32:36;;;;;;;;;;;12.90;67.00;;;;;;6245459;22;19907;-68
2023/07/11 11:35:22;;;;;;;;;;;12.90;67.10;;;;;;6245578;22;19907;-70
2023/07/11 11:37:57;;;;;;;;;;;12.90;67.30;;;;;;6272857;22;19919;-68
2023/07/11 11:40:25;;;;;;;;;;;12.80;67.60;;;;;;6271937;22;20022;-67
2023/07/11 11:43:10;;;;;;;;;;;12.70;68.20;;;;;;6244870;22;19990;-70
2023/07/11 11:45:37;;;;;;;;;;;12.80;68.30;;;;;;6272609;22;19907;-69
2023/07/11 11:48:04;;;;;;;;;;;12.70;68.60;;;;;;6273203;22;19907;-68
2023/07/11 11:50:31;;;;;;;;;;;12.70;68.50;;;;;;6272617;22;19907;-69
2023/07/11 11:53:16;;;;;;;;;;;12.70;68.60;;;;;;6245999;22;20003;-68
2023/07/11 11:58:46;;;;;;;;;;;12.70;68.70;;;;;;6301463;22;20324;-68
2023/07/11 12:01:41;;;;;;;;;;;12.70;68.90;;;;;;6273547;22;19922;-69
2023/07/11 12:04:26;;;;;;;;;;;12.70;69.10;;;;;;6296700;22;19968;-69
2023/07/11 12:06:55;;;;;;;;;;;12.70;69.20;;;;;;6303839;22;19960;-69
2023/07/11 12:09:31;;;;;;;;;;;12.70;69.30;;;;;;6275745;22;19907;-69
2023/07/11 12:12:05;;;;;;;;;;;12.70;69.50;;;;;;6276459;22;19907;-69
2023/07/11 12:14:46;;;;;;;;;;;12.70;69.90;;;;;;6302680;22;20571;-69
2023/07/11 12:17:39;;;;;;;;;;;12.70;69.90;;;;;;6276645;22;19953;-70
2023/07/11 12:20:08;;;;;;;;;;;12.70;70.00;;;;;;6286344;22;19990;-70
2023/07/11 12:22:38;;;;;;;;;;;12.60;71.30;;;;;;6303788;22;19914;-72
2023/07/11 12:25:08;;;;;;;;;;;12.60;71.10;;;;;;6303132;22;19914;-69
2023/07/11 12:27:34;;;;;;;;;;;12.50;71.10;;;;;;6302310;22;19907;-71
2023/07/11 12:30:02;;;;;;;;;;;12.50;71.10;;;;;;6303712;22;20322;-70
2023/07/11 12:32:29;;;;;;;;;;;12.50;71.30;;;;;;6274837;22;19917;-71
2023/07/11 12:34:56;;;;;;;;;;;12.50;71.50;;;;;;6302074;22;19910;-71
2023/07/11 12:37:25;;;;;;;;;;;12.50;71.50;;;;;;6275641;22;19907;-71
2023/07/11 12:40:22;;;;;;;;;;;12.40;72.00;;;;;;6275521;22;19915;-71
2023/07/11 12:42:48;;;;;;;;;;;12.40;71.90;;;;;;6270621;22;19907;-71
2023/07/11 12:45:16;;;;;;;;;;;12.40;72.10;;;;;;6303890;22;19961;-71
2023/07/11 12:47:43;;;;;;;;;;;12.30;72.00;;;;;;6302020;22;19907;-71
2023/07/11 12:50:29;;;;;;;;;;;12.30;72.10;;;;;;6303010;22;19909;-70
2023/07/11 12:52:57;;;;;;;;;;;12.30;72.20;;;;;;6302958;22;19911;-70
2023/07/11 12:55:23;;;;;;;;;;;12.20;72.50;;;;;;6303979;22;19941;-70
2023/07/11 12:57:50;;;;;;;;;;;12.20;72.30;;;;;;6303338;22;19903;-70
2023/07/11 13:00:20;;;;;;;;;;;12.20;72.40;;;;;;6299883;22;20353;-70
2023/07/11 13:02:46;;;;;;;;;;;12.20;72.40;;;;;;6302611;22;19907;-71
2023/07/11 13:05:13;;;;;;;;;;;12.20;72.70;;;;;;6302501;22;19913;-70
2023/07/11 13:07:40;;;;;;;;;;;12.20;72.70;;;;;;6274060;22;19903;-70
2023/07/11 13:10:27;;;;;;;;;;;12.10;72.80;;;;;;6275573;22;19909;-72
2023/07/11 13:12:54;;;;;;;;;;;12.20;72.80;;;;;;6302426;22;19907;-71
2023/07/11 13:15:22;;;;;;;;;;;12.10;73.20;;;;;;6302568;22;19957;-71
2023/07/11 13:17:49;;;;;;;;;;;12.10;73.00;;;;;;6302780;22;19907;-71
2023/07/11 13:20:19;;;;;;;;;;;12.00;73.30;;;;;;6303112;22;20314;-70
2023/07/11 13:22:46;;;;;;;;;;;11.90;73.50;;;;;;6302762;22;19911;-70
2023/07/11 13:25:19;;;;;;;;;;;11.90;73.70;;;;;;6302818;22;19938;-72
2023/07/11 13:27:47;;;;;;;;;;;11.90;73.70;;;;;;6275621;22;19914;-71
2023/07/11 13:30:18;;;;;;;;;;;11.90;73.80;;;;;;6302861;22;19902;-68
2023/07/11 13:32:44;;;;;;;;;;;11.90;73.90;;;;;;6253647;22;19903;-68
2023/07/11 13:35:17;;;;;;;;;;;11.90;74.20;;;;;;6305891;22;19982;-68
2023/07/11 13:37:47;;;;;;;;;;;11.90;74.20;;;;;;6306321;22;19937;-68
2023/07/11 13:40:33;;;;;;;;;;;11.80;74.20;;;;;;6305898;22;19918;-68
2023/07/11 13:43:00;;;;;;;;;;;11.80;74.30;;;;;;6278873;22;20238;-68
2023/07/11 13:45:26;;;;;;;;;;;11.70;74.80;;;;;;6253022;22;19910;-68
2023/07/11 13:47:53;;;;;;;;;;;11.70;75.00;;;;;;6305424;22;19954;-68
2023/07/11 13:50:21;;;;;;;;;;;11.80;74.90;;;;;;6305553;22;19910;-68
2023/07/11 13:52:52;;;;;;;;;;;11.70;75.10;;;;;;6305952;22;20108;-68
2023/07/11 13:55:23;;;;;;;;;;;11.70;75.30;;;;;;6278579;22;19918;-68
2023/07/11 13:57:50;;;;;;;;;;;11.70;75.10;;;;;;6278920;22;19903;-68
2023/07/11 14:00:17;;;;;;;;;;;11.70;75.00;;;;;;6273547;22;19915;-68
2023/07/11 14:02:44;;;;;;;;;;;11.70;75.00;;;;;;6273951;22;19904;-68
2023/07/11 14:05:14;;;;;;;;;;;11.70;74.90;;;;;;6274141;22;20307;-68
2023/07/11 14:07:40;;;;;;;;;;;11.70;74.80;;;;;;6274610;22;19908;-68
2023/07/11 14:10:07;;;;;;;;;;;11.70;74.90;;;;;;6275200;22;19982;-68
2023/07/11 14:12:34;;;;;;;;;;;11.70;75.30;;;;;;6273382;22;19910;-68
2023/07/11 14:15:01;;;;;;;;;;;11.70;75.20;;;;;;6274240;22;19907;-68
2023/07/11 14:17:27;;;;;;;;;;;11.70;75.40;;;;;;6275023;22;19927;-68
2023/07/11 14:19:54;;;;;;;;;;;11.60;75.70;;;;;;6274793;22;19951;-68
2023/07/11 14:22:22;;;;;;;;;;;11.60;75.50;;;;;;6273684;22;20006;-68
2023/07/11 14:24:48;;;;;;;;;;;11.60;75.60;;;;;;6272682;22;19948;-68
2023/07/11 14:27:16;;;;;;;;;;;11.50;75.70;;;;;;6274943;22;19907;-68
2023/07/11 14:29:42;;;;;;;;;;;11.50;75.80;;;;;;6273608;22;19899;-68
2023/07/11 14:32:16;;;;;;;;;;;11.50;75.80;;;;;;6273978;22;19904;-68
2023/07/11 14:34:42;;;;;;;;;;;11.50;75.90;;;;;;6272258;22;19982;-68
2023/07/11 14:37:18;;;;;;;;;;;11.40;75.80;;;;;;6272644;22;19904;-68
2023/07/11 14:39:45;;;;;;;;;;;11.40;76.00;;;;;;6276971;22;19911;-68
2023/07/11 14:42:32;;;;;;;;;;;11.40;76.10;;;;;;6276448;22;19910;-68
2023/07/11 14:44:59;;;;;;;;;;;11.50;76.10;;;;;;6275485;22;19911;-68
2023/07/11 14:47:25;;;;;;;;;;;11.50;76.20;;;;;;6276916;22;19911;-68
2023/07/11 14:49:52;;;;;;;;;;;11.50;76.20;;;;;;6276637;22;20357;-69
2023/07/11 14:52:19;;;;;;;;;;;11.50;76.20;;;;;;6275654;22;19907;-68
2023/07/11 14:54:45;;;;;;;;;;;11.50;76.20;;;;;;6277257;22;19926;-68
2023/07/11 14:57:12;;;;;;;;;;;11.50;76.20;;;;;;6275468;22;19926;-68
2023/07/11 14:59:39;;;;;;;;;;;11.40;76.30;;;;;;6291855;22;19919;-68
2023/07/11 15:02:17;;;;;;;;;;;11.40;76.40;;;;;;6308570;22;19906;-68
2023/07/11 15:04:44;;;;;;;;;;;11.40;76.30;;;;;;6280854;22;19910;-68
2023/07/11 15:07:10;;;;;;;;;;;11.40;76.30;;;;;;6307433;22;19910;-68
2023/07/11 15:09:37;;;;;;;;;;;11.30;76.50;;;;;;6307192;22;19903;-68
2023/07/11 15:12:04;;;;;;;;;;;11.40;76.70;;;;;;6308126;22;19914;-68
2023/07/11 15:14:31;;;;;;;;;;;11.20;77.10;;;;;;6306956;22;19913;-68
2023/07/11 15:16:57;;;;;;;;;;;11.20;77.20;;;;;;6306360;22;20317;-68
2023/07/11 15:19:25;;;;;;;;;;;11.30;77.10;;;;;;6307085;22;19911;-68
2023/07/11 15:22:04;;;;;;;;;;;11.20;77.10;;;;;;6307389;22;19903;-68
2023/07/11 15:24:34;;;;;;;;;;;11.20;77.10;;;;;;6280849;22;20306;-68
2023/07/11 15:27:01;;;;;;;;;;;11.20;77.40;;;;;;6306771;22;19910;-68
2023/07/11 15:29:27;;;;;;;;;;;11.20;77.40;;;;;;6307747;22;19903;-67
2023/07/11 15:31:54;;;;;;;;;;;11.20;77.40;;;;;;6307457;22;20225;-67
2023/07/11 15:34:24;;;;;;;;;;;11.10;77.50;;;;;;6307460;22;19913;-67
2023/07/11 15:36:51;;;;;;;;;;;11.10;77.60;;;;;;6307943;22;19903;-67
2023/07/11 15:39:18;;;;;;;;;;;11.10;77.80;;;;;;6307873;22;20226;-67
2023/07/11 15:41:54;;;;;;;;;;;11.10;77.90;;;;;;6254982;22;19907;-67
2023/07/11 15:44:30;;;;;;;;;;;11.00;78.00;;;;;;6307077;22;20269;-67
2023/07/11 15:46:57;;;;;;;;;;;11.00;77.90;;;;;;6306716;22;19903;-67
2023/07/11 15:49:24;;;;;;;;;;;11.00;78.00;;;;;;6306326;22;19972;-67
2023/07/11 15:51:50;;;;;;;;;;;11.00;78.10;;;;;;6280590;22;19922;-67